createdAt,value
2022-08-22T00:01:42.635Z,99.38
2022-08-22T00:04:44.580Z,97.82
2022-08-22T00:07:45.748Z,96.83
2022-08-22T00:10:35.510Z,99.15
2022-08-22T00:13:19.805Z,99.47
2022-08-22T00:16:14.534Z,99.87
2022-08-22T00:18:51.268Z,97.20
2022-08-22T00:21:26.251Z,96.55
2022-08-22T00:24:29.215Z,96.72
2022-08-22T00:27:02.041Z,98.35
2022-08-22T00:29:43.486Z,99.33
2022-08-22T00:32:23.759Z,100.00
2022-08-22T00:35:07.710Z,100.00
2022-08-22T00:37:44.686Z,99.72
2022-08-22T00:40:29.790Z,99.15
2022-08-22T00:43:41.103Z,99.69
2022-08-22T00:46:17.316Z,100.00
2022-08-22T00:49:18.798Z,99.05
2022-08-22T00:52:22.912Z,98.00
2022-08-22T00:55:36.355Z,99.60
2022-08-22T00:58:47.536Z,100.00
2022-08-22T01:01:19.851Z,100.00
2022-08-22T01:03:49.016Z,99.95
2022-08-22T01:06:15.387Z,100.00
2022-08-22T01:09:01.016Z,100.00
2022-08-22T01:11:46.420Z,100.00
2022-08-22T01:14:34.955Z,100.00
2022-08-22T01:17:26.419Z,100.00
2022-08-22T01:20:21.963Z,100.00
2022-08-22T01:23:26.603Z,100.00
2022-08-22T01:26:26.361Z,99.67
2022-08-22T01:29:34.927Z,98.58
2022-08-22T01:32:29.327Z,98.65
2022-08-22T01:35:30.694Z,100.00
2022-08-22T01:38:25.882Z,100.00
2022-08-22T01:41:12.129Z,100.00
2022-08-22T01:44:17.936Z,100.00
2022-08-22T01:47:13.253Z,99.19
2022-08-22T01:49:55.870Z,99.70
2022-08-22T01:52:36.970Z,99.87
2022-08-22T01:55:26.256Z,100.00
2022-08-22T01:57:59.442Z,100.00
2022-08-22T02:00:35.460Z,100.00
2022-08-22T02:03:16.488Z,100.00
2022-08-22T02:05:59.036Z,100.00
2022-08-22T02:08:48.627Z,100.00
2022-08-22T02:11:37.724Z,100.00
2022-08-22T02:14:21.125Z,100.00
2022-08-22T02:17:09.291Z,100.00
2022-08-22T02:19:46.499Z,100.00
2022-08-22T02:22:44.887Z,100.00
2022-08-22T02:25:23.683Z,100.00
2022-08-22T02:27:58.484Z,100.00
2022-08-22T02:30:47.593Z,100.00
2022-08-22T02:33:36.475Z,100.00
2022-08-22T02:36:14.341Z,100.00
2022-08-22T02:38:56.268Z,100.00
2022-08-22T02:41:47.607Z,99.50
2022-08-22T02:44:20.710Z,100.00
2022-08-22T02:47:26.507Z,100.00
2022-08-22T02:50:12.724Z,100.00
2022-08-22T02:52:51.158Z,100.00
2022-08-22T02:55:33.819Z,100.00
2022-08-22T02:58:11.893Z,100.00
2022-08-22T03:00:47.195Z,100.00
2022-08-22T03:03:24.078Z,100.00
2022-08-22T03:06:01.725Z,100.00
2022-08-22T03:08:37.957Z,100.00
2022-08-22T03:11:24.180Z,100.00
2022-08-22T03:14:26.910Z,100.00
2022-08-22T03:17:09.705Z,100.00
2022-08-22T03:20:02.145Z,100.00
2022-08-22T03:22:37.545Z,100.00
2022-08-22T03:25:17.559Z,100.00
2022-08-22T03:27:53.765Z,100.00
2022-08-22T03:30:27.798Z,100.00
2022-08-22T03:33:13.200Z,100.00
2022-08-22T03:35:57.243Z,100.00
2022-08-22T03:38:33.151Z,100.00
2022-08-22T03:41:23.934Z,100.00
2022-08-22T03:44:14.139Z,100.00
2022-08-22T03:47:16.827Z,100.00
2022-08-22T03:50:29.651Z,100.00
2022-08-22T03:53:21.761Z,100.00
2022-08-22T03:56:11.119Z,100.00
2022-08-22T03:59:02.451Z,100.00
2022-08-22T04:01:58.731Z,100.00
2022-08-22T04:05:02.907Z,100.00
2022-08-22T04:08:25.556Z,100.00
2022-08-22T04:11:19.117Z,100.00
2022-08-22T04:14:08.527Z,100.00
2022-08-22T04:17:12.977Z,100.00
2022-08-22T04:20:03.659Z,100.00
2022-08-22T04:23:02.457Z,100.00
2022-08-22T04:25:44.125Z,100.00
2022-08-22T04:28:10.487Z,100.00
2022-08-22T04:30:46.499Z,100.00
2022-08-22T04:33:27.847Z,100.00
2022-08-22T04:36:15.191Z,100.00
2022-08-22T04:39:14.254Z,100.00
2022-08-22T04:42:10.920Z,100.00
2022-08-22T04:44:57.674Z,100.00
2022-08-22T04:47:31.517Z,100.00
2022-08-22T04:50:09.923Z,100.00
2022-08-22T04:52:58.195Z,100.00
2022-08-22T04:55:33.015Z,100.00
2022-08-22T04:58:20.198Z,100.00
2022-08-22T05:01:12.013Z,100.00
2022-08-22T05:03:45.807Z,100.00
2022-08-22T05:06:19.058Z,100.00
2022-08-22T05:08:48.399Z,100.00
2022-08-22T05:11:23.442Z,100.00
2022-08-22T05:13:55.131Z,100.00
2022-08-22T05:16:25.112Z,100.00
2022-08-22T05:19:01.433Z,100.00
2022-08-22T05:21:33.916Z,100.00
2022-08-22T05:24:05.156Z,100.00
2022-08-22T05:26:38.544Z,100.00
2022-08-22T05:29:08.246Z,100.00
2022-08-22T05:31:48.150Z,100.00
2022-08-22T05:34:20.282Z,100.00
2022-08-22T05:36:54.151Z,100.00
2022-08-22T05:39:27.840Z,100.00
2022-08-22T05:42:00.294Z,100.00
2022-08-22T05:44:37.555Z,100.00
2022-08-22T05:47:25.786Z,100.00
2022-08-22T05:50:07.264Z,100.00
2022-08-22T05:53:06.229Z,100.00
2022-08-22T05:55:48.612Z,100.00
2022-08-22T05:58:30.166Z,100.00
2022-08-22T06:01:38.803Z,100.00
2022-08-22T06:04:14.382Z,100.00
2022-08-22T06:06:51.550Z,100.00
2022-08-22T06:09:24.475Z,100.00
2022-08-22T06:12:02.412Z,100.00
2022-08-22T06:14:45.144Z,100.00
2022-08-22T06:17:18.587Z,100.00
2022-08-22T06:19:48.647Z,100.00
2022-08-22T06:22:21.391Z,100.00
2022-08-22T06:24:49.875Z,100.00
2022-08-22T06:27:22.862Z,100.00
2022-08-22T06:29:56.364Z,100.00
2022-08-22T06:32:44.440Z,100.00
2022-08-22T06:35:22.360Z,100.00
2022-08-22T06:37:51.708Z,100.00
2022-08-22T06:40:18.823Z,100.00
2022-08-22T06:42:50.452Z,100.00
2022-08-22T06:45:31.024Z,100.00
2022-08-22T06:48:06.965Z,100.00
2022-08-22T06:50:36.824Z,100.00
2022-08-22T06:53:07.557Z,100.00
2022-08-22T06:55:38.037Z,100.00
2022-08-22T06:58:15.418Z,100.00
2022-08-22T07:00:43.517Z,100.00
2022-08-22T07:04:02.494Z,100.00
2022-08-22T07:06:32.123Z,100.00
2022-08-22T07:08:58.767Z,100.00
2022-08-22T07:11:31.431Z,100.00
2022-08-22T07:14:05.393Z,100.00
2022-08-22T07:16:49.693Z,100.00
2022-08-22T07:19:47.271Z,100.00
2022-08-22T07:22:23.707Z,100.00
2022-08-22T07:24:56.286Z,100.00
2022-08-22T07:27:48.882Z,100.00
2022-08-22T07:30:28.071Z,100.00
2022-08-22T07:33:25.172Z,100.00
2022-08-22T07:35:59.731Z,100.00
2022-08-22T07:38:42.968Z,100.00
2022-08-22T07:41:21.925Z,100.00
2022-08-22T07:44:05.366Z,100.00
2022-08-22T07:46:51.245Z,100.00
2022-08-22T07:49:30.554Z,100.00
2022-08-22T07:52:12.176Z,95.96
2022-08-22T07:55:08.762Z,96.27
2022-08-22T07:57:43.100Z,96.35
2022-08-22T08:00:16.881Z,94.78
2022-08-22T08:02:49.739Z,94.10
2022-08-22T08:05:17.611Z,93.19
2022-08-22T08:07:45.920Z,92.26
2022-08-22T08:10:18.392Z,90.65
2022-08-22T08:13:01.651Z,91.59
2022-08-22T08:15:32.006Z,91.18
2022-08-22T08:18:03.727Z,90.16
2022-08-22T08:20:30.743Z,90.05
2022-08-22T08:22:58.482Z,90.62
2022-08-22T08:25:27.600Z,90.34
2022-08-22T08:28:15.839Z,86.75
2022-08-22T08:30:55.709Z,81.39
2022-08-22T08:33:26.985Z,81.92
2022-08-22T08:36:17.319Z,80.98
2022-08-22T08:38:53.135Z,80.55
2022-08-22T08:41:50.893Z,80.85
2022-08-22T08:44:32.899Z,79.23
2022-08-22T08:47:22.803Z,77.87
2022-08-22T08:50:07.403Z,76.21
2022-08-22T08:53:14.274Z,72.45
2022-08-22T08:55:45.406Z,71.51
2022-08-22T08:58:33.733Z,69.61
2022-08-22T09:01:00.217Z,70.25
2022-08-22T09:03:47.617Z,70.23
2022-08-22T09:06:50.781Z,70.84
2022-08-22T09:10:01.107Z,68.04
2022-08-22T09:12:56.265Z,67.54
2022-08-22T09:16:04.715Z,69.16
2022-08-22T09:19:01.123Z,68.09
2022-08-22T09:22:04.154Z,68.08
2022-08-22T09:24:48.270Z,67.04
2022-08-22T09:27:36.778Z,65.46
2022-08-22T09:30:17.120Z,65.97
2022-08-22T09:33:04.182Z,64.83
2022-08-22T09:36:05.345Z,65.07
2022-08-22T09:38:53.874Z,63.83
2022-08-22T09:41:30.479Z,64.76
2022-08-22T09:44:01.820Z,63.75
2022-08-22T09:46:49.548Z,62.64
2022-08-22T09:49:45.887Z,63.73
2022-08-22T09:52:34.183Z,62.63
2022-08-22T09:55:16.151Z,62.35
2022-08-22T09:57:59.875Z,62.37
2022-08-22T10:00:40.549Z,59.81
2022-08-22T10:03:23.211Z,62.16
2022-08-22T10:06:00.549Z,59.93
2022-08-22T10:08:32.920Z,59.79
2022-08-22T10:11:02.677Z,60.82
2022-08-22T10:13:40.136Z,59.82
2022-08-22T10:16:19.384Z,59.86
2022-08-22T10:19:00.544Z,60.50
2022-08-22T10:21:45.860Z,59.21
2022-08-22T10:24:32.204Z,59.48
2022-08-22T10:27:11.763Z,58.81
2022-08-22T10:29:57.832Z,57.35
2022-08-22T10:32:49.335Z,57.18
2022-08-22T10:35:33.957Z,56.24
2022-08-22T10:38:16.479Z,57.89
2022-08-22T10:41:10.240Z,56.72
2022-08-22T10:44:01.507Z,57.48
2022-08-22T10:46:54.917Z,56.14
2022-08-22T10:49:35.916Z,57.53
2022-08-22T10:52:16.769Z,55.83
2022-08-22T10:54:49.812Z,56.12
2022-08-22T10:57:38.041Z,56.28
2022-08-22T11:00:22.424Z,55.22
2022-08-22T11:03:24.834Z,56.81
2022-08-22T11:05:54.286Z,56.43
2022-08-22T11:08:48.823Z,54.04
2022-08-22T11:11:36.656Z,54.50
2022-08-22T11:14:24.570Z,55.37
2022-08-22T11:16:58.955Z,55.04
2022-08-22T11:19:46.592Z,51.14
2022-08-22T11:22:46.123Z,54.21
2022-08-22T11:25:28.676Z,52.88
2022-08-22T11:28:32.797Z,51.82
2022-08-22T11:31:16.151Z,52.15
2022-08-22T11:33:49.904Z,51.82
2022-08-22T11:36:31.115Z,52.46
2022-08-22T11:39:25.019Z,51.82
2022-08-22T11:42:04.337Z,50.61
2022-08-22T11:44:53.891Z,51.01
2022-08-22T11:47:28.070Z,50.52
2022-08-22T11:50:25.040Z,50.23
2022-08-22T11:53:04.453Z,49.49
2022-08-22T11:55:48.323Z,49.43
2022-08-22T11:58:45.667Z,49.79
2022-08-22T12:01:27.299Z,51.18
2022-08-22T12:04:09.846Z,48.62
2022-08-22T12:07:01.951Z,48.08
2022-08-22T12:09:59.433Z,48.66
2022-08-22T12:12:37.620Z,49.83
2022-08-22T12:15:10.246Z,49.97
2022-08-22T12:18:01.324Z,49.22
2022-08-22T12:20:52.268Z,48.18
2022-08-22T12:23:43.522Z,47.45
2022-08-22T12:26:28.176Z,47.57
2022-08-22T12:29:06.115Z,46.89
2022-08-22T12:32:16.452Z,45.71
2022-08-22T12:35:20.621Z,45.85
2022-08-22T12:38:28.360Z,46.55
2022-08-22T12:41:28.421Z,46.48
2022-08-22T12:44:17.052Z,47.15
2022-08-22T12:47:11.811Z,45.98
2022-08-22T12:50:21.574Z,46.93
2022-08-22T12:53:38.667Z,47.77
2022-08-22T12:56:26.806Z,46.53
2022-08-22T12:59:17.723Z,47.93
2022-08-22T13:01:47.075Z,48.01
2022-08-22T13:04:19.194Z,48.45
2022-08-22T13:07:30.515Z,48.07
2022-08-22T13:10:28.520Z,46.05
2022-08-22T13:12:58.132Z,47.21
2022-08-22T13:15:36.751Z,47.16
2022-08-22T13:18:30.082Z,47.95
2022-08-22T13:21:00.960Z,47.24
2022-08-22T13:23:39.940Z,47.56
2022-08-22T13:26:33.649Z,47.53
2022-08-22T13:29:39.575Z,47.88
2022-08-22T13:32:04.491Z,48.85
2022-08-22T13:34:48.257Z,48.29
2022-08-22T13:37:28.282Z,47.03
2022-08-22T13:40:00.932Z,47.63
2022-08-22T13:42:31.611Z,46.51
2022-08-22T13:45:02.557Z,46.62
2022-08-22T13:47:32.399Z,47.74
2022-08-22T13:50:19.187Z,47.55
2022-08-22T13:53:13.734Z,46.90
2022-08-22T13:55:49.248Z,48.67
2022-08-22T13:58:38.621Z,48.55
2022-08-22T14:01:28.446Z,49.16
2022-08-22T14:04:05.443Z,48.38
2022-08-22T14:06:49.683Z,48.41
2022-08-22T14:09:32.065Z,48.62
2022-08-22T14:12:16.971Z,49.25
2022-08-22T14:14:47.130Z,48.76
2022-08-22T14:17:17.472Z,48.56
2022-08-22T14:19:58.677Z,48.67
2022-08-22T14:22:31.758Z,48.32
2022-08-22T14:25:07.260Z,48.60
2022-08-22T14:27:39.542Z,49.56
2022-08-22T14:30:18.646Z,49.24
2022-08-22T14:32:51.322Z,49.92
2022-08-22T14:35:31.415Z,50.03
2022-08-22T14:38:29.829Z,50.74
2022-08-22T14:41:04.162Z,49.56
2022-08-22T14:43:31.879Z,50.15
2022-08-22T14:46:08.691Z,48.96
2022-08-22T14:48:43.317Z,48.70
2022-08-22T14:51:26.822Z,49.28
2022-08-22T14:54:21.280Z,49.39
2022-08-22T14:56:50.337Z,50.03
2022-08-22T14:59:36.853Z,51.24
2022-08-22T15:02:09.622Z,52.08
2022-08-22T15:04:43.916Z,51.57
2022-08-22T15:07:13.677Z,50.94
2022-08-22T15:09:48.852Z,50.53
2022-08-22T15:12:28.533Z,49.60
2022-08-22T15:15:00.451Z,50.25
2022-08-22T15:17:51.002Z,50.38
2022-08-22T15:20:38.254Z,49.83
2022-08-22T15:23:19.579Z,50.46
2022-08-22T15:25:58.651Z,50.59
2022-08-22T15:28:25.975Z,51.25
2022-08-22T15:30:54.062Z,51.48
2022-08-22T15:33:32.242Z,51.35
2022-08-22T15:36:15.859Z,51.60
2022-08-22T15:38:48.794Z,51.75
2022-08-22T15:41:51.037Z,51.99
2022-08-22T15:44:33.044Z,52.00
2022-08-22T15:47:23.712Z,53.04
2022-08-22T15:49:56.406Z,52.85
2022-08-22T15:52:35.655Z,52.00
2022-08-22T15:55:23.740Z,52.00
2022-08-22T15:58:05.233Z,52.34
2022-08-22T16:00:43.332Z,52.78
2022-08-22T16:03:32.844Z,53.17
2022-08-22T16:06:07.637Z,52.96
2022-08-22T16:08:36.944Z,53.62
2022-08-22T16:11:03.330Z,53.80
2022-08-22T16:13:29.795Z,54.70
2022-08-22T16:16:07.083Z,54.72
2022-08-22T16:18:33.490Z,55.37
2022-08-22T16:21:13.277Z,55.45
2022-08-22T16:24:05.581Z,54.84
2022-08-22T16:26:32.029Z,55.46
2022-08-22T16:29:14.725Z,56.25
2022-08-22T16:31:43.808Z,56.09
2022-08-22T16:34:16.404Z,56.42
2022-08-22T16:37:10.869Z,57.14
2022-08-22T16:39:43.979Z,56.35
2022-08-22T16:42:13.304Z,56.74
2022-08-22T16:44:49.068Z,56.61
2022-08-22T16:47:24.815Z,56.91
2022-08-22T16:49:51.202Z,57.25
2022-08-22T16:52:20.937Z,57.35
2022-08-22T16:54:50.261Z,57.35
2022-08-22T16:57:25.202Z,57.36
2022-08-22T17:00:05.150Z,57.59
2022-08-22T17:03:10.421Z,59.12
2022-08-22T17:06:00.463Z,59.07
2022-08-22T17:08:54.087Z,58.85
2022-08-22T17:11:40.517Z,58.81
2022-08-22T17:14:42.560Z,59.54
2022-08-22T17:17:41.247Z,59.01
2022-08-22T17:20:44.718Z,59.32
2022-08-22T17:23:45.017Z,59.16
2022-08-22T17:26:36.035Z,59.87
2022-08-22T17:29:15.744Z,60.63
2022-08-22T17:31:54.483Z,60.67
2022-08-22T17:34:45.658Z,60.57
2022-08-22T17:37:25.965Z,60.47
2022-08-22T17:40:09.820Z,60.21
2022-08-22T17:43:21.711Z,60.74
2022-08-22T17:46:03.335Z,60.06
2022-08-22T17:49:00.882Z,59.67
2022-08-22T17:51:54.686Z,60.25
2022-08-22T17:54:30.739Z,60.60
2022-08-22T17:57:10.232Z,60.43
2022-08-22T17:59:46.638Z,60.77
2022-08-22T18:02:22.227Z,61.52
2022-08-22T18:05:14.051Z,61.91
2022-08-22T18:07:49.993Z,61.91
2022-08-22T18:10:35.765Z,61.50
2022-08-22T18:13:14.969Z,62.14
2022-08-22T18:15:54.657Z,62.72
2022-08-22T18:18:45.896Z,61.89
2022-08-22T18:21:37.190Z,62.19
2022-08-22T18:24:09.632Z,62.73
2022-08-22T18:26:41.780Z,63.11
2022-08-22T18:29:13.651Z,63.32
2022-08-22T18:32:08.593Z,63.36
2022-08-22T18:35:01.762Z,63.67
2022-08-22T18:37:35.606Z,64.46
2022-08-22T18:40:22.218Z,64.88
2022-08-22T18:42:58.156Z,65.47
2022-08-22T18:45:47.936Z,65.87
2022-08-22T18:48:59.454Z,66.23
2022-08-22T18:51:38.398Z,65.86
2022-08-22T18:54:05.111Z,65.59
2022-08-22T18:56:31.495Z,65.28
2022-08-22T18:59:22.109Z,65.47
2022-08-22T19:01:56.499Z,66.17
2022-08-22T19:04:56.918Z,65.58
2022-08-22T19:07:37.534Z,65.74
2022-08-22T19:10:34.872Z,65.87
2022-08-22T19:13:21.431Z,66.51
2022-08-22T19:16:15.199Z,66.30
2022-08-22T19:18:54.216Z,66.18
2022-08-22T19:21:55.037Z,66.52
2022-08-22T19:24:27.554Z,67.57
2022-08-22T19:27:18.970Z,67.42
2022-08-22T19:29:45.332Z,68.30
2022-08-22T19:32:46.771Z,69.06
2022-08-22T19:35:26.041Z,69.62
2022-08-22T19:38:04.839Z,69.77
2022-08-22T19:40:46.212Z,70.27
2022-08-22T19:43:30.588Z,71.31
2022-08-22T19:45:59.725Z,72.01
2022-08-22T19:48:33.832Z,71.61
2022-08-22T19:51:23.888Z,71.96
2022-08-22T19:54:22.944Z,72.73
2022-08-22T19:57:13.587Z,72.97
2022-08-22T20:00:11.004Z,73.30
2022-08-22T20:02:55.458Z,73.24
2022-08-22T20:05:37.156Z,72.84
2022-08-22T20:08:19.137Z,73.17
2022-08-22T20:11:21.400Z,72.89
2022-08-22T20:13:48.657Z,72.47
2022-08-22T20:16:23.669Z,73.27
2022-08-22T20:19:05.499Z,72.57
2022-08-22T20:21:39.137Z,71.79
2022-08-22T20:24:07.906Z,72.41
2022-08-22T20:26:43.576Z,72.39
2022-08-22T20:29:30.369Z,72.93
2022-08-22T20:31:59.070Z,73.83
2022-08-22T20:34:29.639Z,73.83
2022-08-22T20:37:22.701Z,74.31
2022-08-22T20:40:53.416Z,74.16
2022-08-22T20:43:14.563Z,74.09
2022-08-22T20:46:18.976Z,73.15
2022-08-22T20:48:47.993Z,72.57
2022-08-22T20:51:19.756Z,71.68
2022-08-22T20:53:54.954Z,71.44
2022-08-22T20:56:33.520Z,71.18
2022-08-22T20:59:01.305Z,71.25
2022-08-22T21:01:29.004Z,70.81
2022-08-22T21:03:56.392Z,70.77
2022-08-22T21:06:32.454Z,70.50
2022-08-22T21:09:39.277Z,69.45
2022-08-22T21:12:09.449Z,71.85
2022-08-22T21:14:44.402Z,72.70
2022-08-22T21:17:39.194Z,73.96
2022-08-22T21:20:19.143Z,75.76
2022-08-22T21:22:45.575Z,75.88
2022-08-22T21:25:12.016Z,77.17
2022-08-22T21:27:38.452Z,77.69
2022-08-22T21:30:08.575Z,77.14
2022-08-22T21:32:43.101Z,76.81
2022-08-22T21:35:29.635Z,75.40
2022-08-22T21:37:57.280Z,76.14
2022-08-22T21:40:32.005Z,76.65
2022-08-22T21:43:11.039Z,75.10
2022-08-22T21:45:37.388Z,76.79
2022-08-22T21:48:31.087Z,77.21
2022-08-22T21:51:27.598Z,77.43
2022-08-22T21:54:39.562Z,77.23
2022-08-22T21:57:08.669Z,77.59
2022-08-22T21:59:50.898Z,77.70
2022-08-22T22:02:28.970Z,77.45
2022-08-22T22:04:58.587Z,77.91
2022-08-22T22:07:25.818Z,78.56
2022-08-22T22:09:53.057Z,78.72
2022-08-22T22:12:22.470Z,79.32
2022-08-22T22:17:17.892Z,79.67
2022-08-22T22:19:44.832Z,79.82
2022-08-22T22:22:11.260Z,79.21
2022-08-22T22:24:37.756Z,80.02
2022-08-22T22:27:05.028Z,80.74
2022-08-22T22:29:32.890Z,80.54
2022-08-22T22:31:59.476Z,80.33
2022-08-22T22:34:26.035Z,80.12
2022-08-22T22:36:53.456Z,81.26
2022-08-22T22:39:19.924Z,81.54
2022-08-22T22:41:46.396Z,81.57
2022-08-22T22:44:12.862Z,82.14
2022-08-22T22:46:39.283Z,83.48
2022-08-22T22:49:05.861Z,83.54
2022-08-22T22:51:32.385Z,83.89
2022-08-22T22:53:58.946Z,83.42
2022-08-22T22:56:25.500Z,83.52
2022-08-22T22:58:59.063Z,83.65
2022-08-22T23:01:27.824Z,83.40
2022-08-22T23:04:05.464Z,81.54
2022-08-22T23:06:32.899Z,84.41
2022-08-22T23:08:59.376Z,85.68
2022-08-22T23:11:30.177Z,86.82
2022-08-22T23:13:56.750Z,86.73
2022-08-22T23:16:26.520Z,86.04
2022-08-22T23:18:53.403Z,86.13
2022-08-22T23:21:26.420Z,86.28
2022-08-22T23:23:56.242Z,85.77
2022-08-22T23:26:22.971Z,84.88
2022-08-22T23:28:49.632Z,84.33
2022-08-22T23:31:28.935Z,87.72
2022-08-22T23:33:56.600Z,88.98
2022-08-22T23:36:23.760Z,90.13
2022-08-22T23:38:51.870Z,90.09
2022-08-22T23:41:21.419Z,90.23
2022-08-22T23:43:50.488Z,92.61
2022-08-22T23:46:18.963Z,92.40
2022-08-22T23:48:46.329Z,91.81
2022-08-22T23:51:15.099Z,91.87
2022-08-22T23:53:44.916Z,92.37
2022-08-22T23:56:19.314Z,92.63
2022-08-22T23:58:46.350Z,93.37
